sensor_id;sensor_type;location;lat;lon;timestamp;P1;durP1;ratioP1;P2;durP2;ratioP2
51190;SDS011;37253;48.736;9.294;2022-09-25T00:00:36;8.30;;;2.20;;
51190;SDS011;37253;48.736;9.294;2022-09-25T00:02:37;5.47;;;2.20;;
51190;SDS011;37253;48.736;9.294;2022-09-25T00:04:37;6.22;;;2.42;;
51190;SDS011;37253;48.736;9.294;2022-09-25T00:06:38;6.53;;;2.05;;
51190;SDS011;37253;48.736;9.294;2022-09-25T00:08:39;7.50;;;2.22;;
51190;SDS011;37253;48.736;9.294;2022-09-25T00:10:43;8.07;;;2.53;;
51190;SDS011;37253;48.736;9.294;2022-09-25T00:12:45;7.38;;;2.35;;
51190;SDS011;37253;48.736;9.294;2022-09-25T00:14:48;6.70;;;2.10;;
51190;SDS011;37253;48.736;9.294;2022-09-25T00:16:49;7.47;;;2.42;;
51190;SDS011;37253;48.736;9.294;2022-09-25T00:18:49;6.35;;;2.35;;
51190;SDS011;37253;48.736;9.294;2022-09-25T00:21:10;8.27;;;2.00;;
51190;SDS011;37253;48.736;9.294;2022-09-25T00:23:11;6.90;;;1.85;;
51190;SDS011;37253;48.736;9.294;2022-09-25T00:25:13;6.20;;;1.92;;
51190;SDS011;37253;48.736;9.294;2022-09-25T00:27:14;6.53;;;2.20;;
51190;SDS011;37253;48.736;9.294;2022-09-25T00:29:16;4.85;;;1.90;;
51190;SDS011;37253;48.736;9.294;2022-09-25T00:31:18;7.10;;;2.05;;
51190;SDS011;37253;48.736;9.294;2022-09-25T00:33:24;4.80;;;2.05;;
51190;SDS011;37253;48.736;9.294;2022-09-25T00:35:24;6.47;;;2.40;;
51190;SDS011;37253;48.736;9.294;2022-09-25T00:37:25;4.32;;;1.92;;
51190;SDS011;37253;48.736;9.294;2022-09-25T00:39:27;8.27;;;2.42;;
51190;SDS011;37253;48.736;9.294;2022-09-25T00:41:28;4.70;;;2.10;;
51190;SDS011;37253;48.736;9.294;2022-09-25T00:43:39;3.72;;;1.70;;
51190;SDS011;37253;48.736;9.294;2022-09-25T00:45:41;5.65;;;2.03;;
51190;SDS011;37253;48.736;9.294;2022-09-25T00:49:45;7.22;;;2.50;;
51190;SDS011;37253;48.736;9.294;2022-09-25T00:53:51;4.28;;;2.13;;
51190;SDS011;37253;48.736;9.294;2022-09-25T00:55:52;5.07;;;1.80;;
51190;SDS011;37253;48.736;9.294;2022-09-25T00:57:54;7.38;;;2.20;;
51190;SDS011;37253;48.736;9.294;2022-09-25T00:59:56;4.35;;;1.80;;
51190;SDS011;37253;48.736;9.294;2022-09-25T01:02:00;6.63;;;2.00;;
51190;SDS011;37253;48.736;9.294;2022-09-25T01:04:01;4.25;;;1.92;;
51190;SDS011;37253;48.736;9.294;2022-09-25T01:06:01;6.65;;;2.08;;
51190;SDS011;37253;48.736;9.294;2022-09-25T01:08:03;6.00;;;2.33;;
51190;SDS011;37253;48.736;9.294;2022-09-25T01:10:05;4.60;;;2.10;;
51190;SDS011;37253;48.736;9.294;2022-09-25T01:12:07;7.65;;;2.40;;
51190;SDS011;37253;48.736;9.294;2022-09-25T01:14:08;3.42;;;2.00;;
51190;SDS011;37253;48.736;9.294;2022-09-25T01:18:43;4.68;;;1.80;;
51190;SDS011;37253;48.736;9.294;2022-09-25T01:28:54;7.22;;;2.17;;
51190;SDS011;37253;48.736;9.294;2022-09-25T01:31:03;6.25;;;1.70;;
51190;SDS011;37253;48.736;9.294;2022-09-25T01:33:14;3.92;;;1.73;;
51190;SDS011;37253;48.736;9.294;2022-09-25T01:35:20;4.05;;;1.90;;
51190;SDS011;37253;48.736;9.294;2022-09-25T01:37:35;5.70;;;1.77;;
51190;SDS011;37253;48.736;9.294;2022-09-25T01:39:46;5.10;;;2.25;;
51190;SDS011;37253;48.736;9.294;2022-09-25T01:44:08;5.00;;;1.88;;
51190;SDS011;37253;48.736;9.294;2022-09-25T01:46:15;5.78;;;2.10;;
51190;SDS011;37253;48.736;9.294;2022-09-25T01:48:19;3.83;;;1.92;;
51190;SDS011;37253;48.736;9.294;2022-09-25T01:50:24;4.78;;;1.95;;
51190;SDS011;37253;48.736;9.294;2022-09-25T01:52:31;5.05;;;1.85;;
51190;SDS011;37253;48.736;9.294;2022-09-25T01:54:38;7.05;;;1.92;;
51190;SDS011;37253;48.736;9.294;2022-09-25T01:56:53;7.50;;;2.20;;
51190;SDS011;37253;48.736;9.294;2022-09-25T01:58:56;4.15;;;1.80;;
51190;SDS011;37253;48.736;9.294;2022-09-25T02:01:09;7.20;;;2.08;;
51190;SDS011;37253;48.736;9.294;2022-09-25T02:03:16;5.03;;;1.77;;
51190;SDS011;37253;48.736;9.294;2022-09-25T02:05:22;5.75;;;1.83;;
51190;SDS011;37253;48.736;9.294;2022-09-25T02:07:30;4.30;;;1.80;;
51190;SDS011;37253;48.736;9.294;2022-09-25T02:11:43;3.70;;;1.77;;
51190;SDS011;37253;48.736;9.294;2022-09-25T02:13:52;4.65;;;2.00;;
51190;SDS011;37253;48.736;9.294;2022-09-25T02:16:20;3.47;;;1.95;;
51190;SDS011;37253;48.736;9.294;2022-09-25T02:18:22;4.80;;;1.60;;
51190;SDS011;37253;48.736;9.294;2022-09-25T02:20:41;5.15;;;2.00;;
51190;SDS011;37253;48.736;9.294;2022-09-25T02:27:42;6.65;;;2.22;;
51190;SDS011;37253;48.736;9.294;2022-09-25T02:29:42;3.08;;;1.80;;
51190;SDS011;37253;48.736;9.294;2022-09-25T02:33:48;3.45;;;1.70;;
51190;SDS011;37253;48.736;9.294;2022-09-25T02:35:49;4.05;;;1.80;;
51190;SDS011;37253;48.736;9.294;2022-09-25T02:37:49;7.57;;;1.75;;
51190;SDS011;37253;48.736;9.294;2022-09-25T02:39:51;3.67;;;1.50;;
51190;SDS011;37253;48.736;9.294;2022-09-25T02:48:59;3.42;;;1.77;;
51190;SDS011;37253;48.736;9.294;2022-09-25T02:54:23;3.65;;;1.40;;
51190;SDS011;37253;48.736;9.294;2022-09-25T02:56:31;3.38;;;1.40;;
51190;SDS011;37253;48.736;9.294;2022-09-25T02:58:55;3.03;;;1.75;;
51190;SDS011;37253;48.736;9.294;2022-09-25T03:00:55;4.22;;;1.80;;
51190;SDS011;37253;48.736;9.294;2022-09-25T03:02:57;3.22;;;1.80;;
51190;SDS011;37253;48.736;9.294;2022-09-25T03:05:03;2.95;;;1.65;;
51190;SDS011;37253;48.736;9.294;2022-09-25T03:07:05;3.97;;;1.77;;
51190;SDS011;37253;48.736;9.294;2022-09-25T03:09:06;2.55;;;1.60;;
51190;SDS011;37253;48.736;9.294;2022-09-25T03:11:09;5.75;;;1.80;;
51190;SDS011;37253;48.736;9.294;2022-09-25T03:13:15;2.63;;;1.60;;
51190;SDS011;37253;48.736;9.294;2022-09-25T03:15:17;5.88;;;1.75;;
51190;SDS011;37253;48.736;9.294;2022-09-25T03:17:18;2.65;;;1.52;;
51190;SDS011;37253;48.736;9.294;2022-09-25T03:19:20;3.92;;;1.98;;
51190;SDS011;37253;48.736;9.294;2022-09-25T03:21:21;5.85;;;1.92;;
51190;SDS011;37253;48.736;9.294;2022-09-25T03:23:21;4.63;;;1.52;;
51190;SDS011;37253;48.736;9.294;2022-09-25T03:25:22;2.63;;;1.38;;
51190;SDS011;37253;48.736;9.294;2022-09-25T03:27:23;3.67;;;1.70;;
51190;SDS011;37253;48.736;9.294;2022-09-25T03:29:27;2.83;;;1.63;;
51190;SDS011;37253;48.736;9.294;2022-09-25T03:31:30;5.85;;;1.92;;
51190;SDS011;37253;48.736;9.294;2022-09-25T03:33:37;3.92;;;1.55;;
51190;SDS011;37253;48.736;9.294;2022-09-25T03:35:38;2.47;;;1.52;;
51190;SDS011;37253;48.736;9.294;2022-09-25T03:37:39;4.80;;;1.70;;
51190;SDS011;37253;48.736;9.294;2022-09-25T03:39:40;2.90;;;1.85;;
51190;SDS011;37253;48.736;9.294;2022-09-25T03:41:40;3.53;;;1.60;;
51190;SDS011;37253;48.736;9.294;2022-09-25T03:43:42;3.20;;;1.70;;
51190;SDS011;37253;48.736;9.294;2022-09-25T03:45:42;5.35;;;1.83;;
51190;SDS011;37253;48.736;9.294;2022-09-25T03:47:43;2.33;;;1.40;;
51190;SDS011;37253;48.736;9.294;2022-09-25T03:49:43;2.13;;;1.45;;
51190;SDS011;37253;48.736;9.294;2022-09-25T03:51:43;3.42;;;1.50;;
51190;SDS011;37253;48.736;9.294;2022-09-25T03:53:44;3.67;;;1.40;;
51190;SDS011;37253;48.736;9.294;2022-09-25T03:55:45;2.92;;;1.40;;
51190;SDS011;37253;48.736;9.294;2022-09-25T03:57:47;3.70;;;1.40;;
51190;SDS011;37253;48.736;9.294;2022-09-25T03:59:47;4.32;;;1.70;;
51190;SDS011;37253;48.736;9.294;2022-09-25T04:01:48;3.60;;;1.65;;
51190;SDS011;37253;48.736;9.294;2022-09-25T04:03:48;3.50;;;1.60;;
51190;SDS011;37253;48.736;9.294;2022-09-25T04:05:49;2.95;;;1.63;;
51190;SDS011;37253;48.736;9.294;2022-09-25T04:07:49;3.13;;;1.40;;
51190;SDS011;37253;48.736;9.294;2022-09-25T04:09:50;2.75;;;1.55;;
51190;SDS011;37253;48.736;9.294;2022-09-25T04:11:50;3.22;;;1.30;;
51190;SDS011;37253;48.736;9.294;2022-09-25T04:13:50;1.98;;;1.55;;
51190;SDS011;37253;48.736;9.294;2022-09-25T04:15:51;2.13;;;1.50;;
51190;SDS011;37253;48.736;9.294;2022-09-25T04:17:52;4.07;;;1.55;;
51190;SDS011;37253;48.736;9.294;2022-09-25T04:19:52;4.50;;;1.50;;
51190;SDS011;37253;48.736;9.294;2022-09-25T04:21:53;3.22;;;1.60;;
51190;SDS011;37253;48.736;9.294;2022-09-25T04:23:53;1.98;;;1.40;;
51190;SDS011;37253;48.736;9.294;2022-09-25T04:26:20;2.78;;;1.50;;
51190;SDS011;37253;48.736;9.294;2022-09-25T04:28:20;1.98;;;1.40;;
51190;SDS011;37253;48.736;9.294;2022-09-25T04:30:22;3.03;;;1.52;;
51190;SDS011;37253;48.736;9.294;2022-09-25T04:32:23;3.88;;;1.35;;
51190;SDS011;37253;48.736;9.294;2022-09-25T04:34:42;2.42;;;1.48;;
51190;SDS011;37253;48.736;9.294;2022-09-25T04:36:42;2.80;;;1.65;;
51190;SDS011;37253;48.736;9.294;2022-09-25T04:38:43;5.57;;;1.95;;
51190;SDS011;37253;48.736;9.294;2022-09-25T04:40:43;2.78;;;1.58;;
51190;SDS011;37253;48.736;9.294;2022-09-25T04:42:44;2.58;;;1.60;;
51190;SDS011;37253;48.736;9.294;2022-09-25T04:44:45;3.17;;;1.67;;
51190;SDS011;37253;48.736;9.294;2022-09-25T04:46:45;2.78;;;1.60;;
51190;SDS011;37253;48.736;9.294;2022-09-25T04:48:45;1.85;;;1.27;;
51190;SDS011;37253;48.736;9.294;2022-09-25T04:50:46;2.30;;;1.38;;
51190;SDS011;37253;48.736;9.294;2022-09-25T04:52:48;2.15;;;1.42;;
51190;SDS011;37253;48.736;9.294;2022-09-25T04:54:50;3.15;;;1.73;;
51190;SDS011;37253;48.736;9.294;2022-09-25T04:56:50;2.33;;;1.45;;
51190;SDS011;37253;48.736;9.294;2022-09-25T04:58:51;2.50;;;1.40;;
51190;SDS011;37253;48.736;9.294;2022-09-25T05:00:51;1.73;;;1.52;;
51190;SDS011;37253;48.736;9.294;2022-09-25T05:02:52;2.15;;;1.40;;
51190;SDS011;37253;48.736;9.294;2022-09-25T05:04:52;3.80;;;1.58;;
51190;SDS011;37253;48.736;9.294;2022-09-25T05:06:52;3.20;;;1.40;;
51190;SDS011;37253;48.736;9.294;2022-09-25T05:08:53;3.55;;;1.40;;
51190;SDS011;37253;48.736;9.294;2022-09-25T05:10:54;2.63;;;1.48;;
51190;SDS011;37253;48.736;9.294;2022-09-25T05:13:00;1.50;;;1.25;;
51190;SDS011;37253;48.736;9.294;2022-09-25T05:15:02;3.58;;;1.40;;
51190;SDS011;37253;48.736;9.294;2022-09-25T05:17:03;3.38;;;1.13;;
51190;SDS011;37253;48.736;9.294;2022-09-25T05:19:05;2.28;;;1.40;;
51190;SDS011;37253;48.736;9.294;2022-09-25T05:21:06;3.55;;;1.33;;
51190;SDS011;37253;48.736;9.294;2022-09-25T05:23:06;4.05;;;1.63;;
51190;SDS011;37253;48.736;9.294;2022-09-25T05:25:07;1.52;;;1.20;;
51190;SDS011;37253;48.736;9.294;2022-09-25T05:27:08;2.25;;;1.40;;
51190;SDS011;37253;48.736;9.294;2022-09-25T05:29:08;3.10;;;1.25;;
51190;SDS011;37253;48.736;9.294;2022-09-25T05:31:09;1.60;;;1.10;;
51190;SDS011;37253;48.736;9.294;2022-09-25T05:33:10;2.05;;;1.30;;
51190;SDS011;37253;48.736;9.294;2022-09-25T05:35:10;2.67;;;1.25;;
51190;SDS011;37253;48.736;9.294;2022-09-25T05:37:10;2.10;;;1.40;;
51190;SDS011;37253;48.736;9.294;2022-09-25T05:39:11;3.40;;;1.35;;
51190;SDS011;37253;48.736;9.294;2022-09-25T05:41:11;2.17;;;1.20;;
51190;SDS011;37253;48.736;9.294;2022-09-25T05:43:12;1.60;;;1.10;;
51190;SDS011;37253;48.736;9.294;2022-09-25T05:45:13;1.83;;;1.30;;
51190;SDS011;37253;48.736;9.294;2022-09-25T05:47:14;1.77;;;1.20;;
51190;SDS011;37253;48.736;9.294;2022-09-25T05:49:14;1.98;;;1.30;;
51190;SDS011;37253;48.736;9.294;2022-09-25T05:51:15;2.25;;;1.20;;
51190;SDS011;37253;48.736;9.294;2022-09-25T05:53:15;6.05;;;1.90;;
51190;SDS011;37253;48.736;9.294;2022-09-25T05:55:15;1.52;;;1.40;;
51190;SDS011;37253;48.736;9.294;2022-09-25T05:57:16;2.83;;;1.65;;
51190;SDS011;37253;48.736;9.294;2022-09-25T05:59:16;1.95;;;1.10;;
51190;SDS011;37253;48.736;9.294;2022-09-25T06:01:16;4.10;;;1.35;;
51190;SDS011;37253;48.736;9.294;2022-09-25T06:03:17;2.28;;;1.20;;
51190;SDS011;37253;48.736;9.294;2022-09-25T06:05:18;2.50;;;1.40;;
51190;SDS011;37253;48.736;9.294;2022-09-25T06:07:18;2.10;;;1.33;;
51190;SDS011;37253;48.736;9.294;2022-09-25T06:09:19;1.73;;;1.42;;
51190;SDS011;37253;48.736;9.294;2022-09-25T06:11:19;1.83;;;1.20;;
51190;SDS011;37253;48.736;9.294;2022-09-25T06:13:23;1.83;;;1.23;;
51190;SDS011;37253;48.736;9.294;2022-09-25T06:15:27;2.92;;;1.33;;
51190;SDS011;37253;48.736;9.294;2022-09-25T06:17:28;2.85;;;1.70;;
51190;SDS011;37253;48.736;9.294;2022-09-25T06:19:29;2.95;;;1.45;;
51190;SDS011;37253;48.736;9.294;2022-09-25T06:21:29;2.78;;;1.30;;
51190;SDS011;37253;48.736;9.294;2022-09-25T06:23:29;2.25;;;1.27;;
51190;SDS011;37253;48.736;9.294;2022-09-25T06:25:30;2.92;;;1.38;;
51190;SDS011;37253;48.736;9.294;2022-09-25T06:27:35;2.65;;;1.20;;
51190;SDS011;37253;48.736;9.294;2022-09-25T06:29:36;5.13;;;1.17;;
51190;SDS011;37253;48.736;9.294;2022-09-25T06:31:36;3.45;;;1.25;;
51190;SDS011;37253;48.736;9.294;2022-09-25T06:33:38;2.80;;;1.35;;
51190;SDS011;37253;48.736;9.294;2022-09-25T06:35:42;4.57;;;1.40;;
51190;SDS011;37253;48.736;9.294;2022-09-25T06:37:43;4.88;;;1.58;;
51190;SDS011;37253;48.736;9.294;2022-09-25T06:39:44;2.78;;;1.38;;
51190;SDS011;37253;48.736;9.294;2022-09-25T06:41:44;2.60;;;1.40;;
51190;SDS011;37253;48.736;9.294;2022-09-25T06:43:47;2.40;;;1.33;;
51190;SDS011;37253;48.736;9.294;2022-09-25T06:45:48;3.13;;;1.30;;
51190;SDS011;37253;48.736;9.294;2022-09-25T06:47:50;2.25;;;1.30;;
51190;SDS011;37253;48.736;9.294;2022-09-25T06:49:50;1.83;;;1.17;;
51190;SDS011;37253;48.736;9.294;2022-09-25T06:51:51;3.10;;;1.35;;
51190;SDS011;37253;48.736;9.294;2022-09-25T06:53:51;1.65;;;1.00;;
51190;SDS011;37253;48.736;9.294;2022-09-25T06:55:54;3.28;;;1.30;;
51190;SDS011;37253;48.736;9.294;2022-09-25T06:57:55;5.28;;;1.20;;
51190;SDS011;37253;48.736;9.294;2022-09-25T06:59:56;2.92;;;1.20;;
51190;SDS011;37253;48.736;9.294;2022-09-25T07:01:56;1.80;;;1.40;;
51190;SDS011;37253;48.736;9.294;2022-09-25T07:04:16;5.72;;;1.40;;
51190;SDS011;37253;48.736;9.294;2022-09-25T07:06:18;2.47;;;1.13;;
51190;SDS011;37253;48.736;9.294;2022-09-25T07:08:20;2.67;;;1.33;;
51190;SDS011;37253;48.736;9.294;2022-09-25T07:10:21;2.13;;;1.20;;
51190;SDS011;37253;48.736;9.294;2022-09-25T07:12:21;3.20;;;1.35;;
51190;SDS011;37253;48.736;9.294;2022-09-25T07:14:22;1.75;;;1.30;;
51190;SDS011;37253;48.736;9.294;2022-09-25T07:16:23;7.03;;;1.40;;
51190;SDS011;37253;48.736;9.294;2022-09-25T07:18:28;3.15;;;1.10;;
51190;SDS011;37253;48.736;9.294;2022-09-25T07:20:28;1.65;;;1.20;;
51190;SDS011;37253;48.736;9.294;2022-09-25T07:22:29;4.28;;;1.30;;
51190;SDS011;37253;48.736;9.294;2022-09-25T07:24:29;2.58;;;1.30;;
51190;SDS011;37253;48.736;9.294;2022-09-25T07:26:30;2.28;;;1.20;;
51190;SDS011;37253;48.736;9.294;2022-09-25T07:28:32;2.17;;;1.25;;
51190;SDS011;37253;48.736;9.294;2022-09-25T07:30:33;3.83;;;1.25;;
51190;SDS011;37253;48.736;9.294;2022-09-25T07:32:34;2.10;;;1.25;;
51190;SDS011;37253;48.736;9.294;2022-09-25T07:34:34;4.95;;;1.35;;
51190;SDS011;37253;48.736;9.294;2022-09-25T07:36:36;1.58;;;1.00;;
51190;SDS011;37253;48.736;9.294;2022-09-25T07:38:37;2.33;;;1.13;;
51190;SDS011;37253;48.736;9.294;2022-09-25T07:40:38;4.90;;;1.50;;
51190;SDS011;37253;48.736;9.294;2022-09-25T07:42:38;2.70;;;1.23;;
51190;SDS011;37253;48.736;9.294;2022-09-25T07:44:39;3.22;;;1.75;;
51190;SDS011;37253;48.736;9.294;2022-09-25T07:46:40;2.47;;;1.20;;
51190;SDS011;37253;48.736;9.294;2022-09-25T07:48:43;1.30;;;1.20;;
51190;SDS011;37253;48.736;9.294;2022-09-25T07:50:43;2.00;;;1.25;;
51190;SDS011;37253;48.736;9.294;2022-09-25T07:52:44;3.08;;;1.23;;
51190;SDS011;37253;48.736;9.294;2022-09-25T07:54:44;1.67;;;1.20;;
51190;SDS011;37253;48.736;9.294;2022-09-25T07:56:44;2.95;;;1.20;;
51190;SDS011;37253;48.736;9.294;2022-09-25T07:58:45;2.92;;;1.20;;
51190;SDS011;37253;48.736;9.294;2022-09-25T08:00:45;2.95;;;1.30;;
51190;SDS011;37253;48.736;9.294;2022-09-25T08:02:53;3.47;;;1.30;;
51190;SDS011;37253;48.736;9.294;2022-09-25T08:04:54;2.60;;;1.13;;
51190;SDS011;37253;48.736;9.294;2022-09-25T08:06:57;2.95;;;1.10;;
51190;SDS011;37253;48.736;9.294;2022-09-25T08:08:58;2.13;;;1.15;;
51190;SDS011;37253;48.736;9.294;2022-09-25T08:10:59;2.20;;;1.33;;
51190;SDS011;37253;48.736;9.294;2022-09-25T08:13:01;3.20;;;1.20;;
51190;SDS011;37253;48.736;9.294;2022-09-25T08:15:01;2.75;;;1.30;;
51190;SDS011;37253;48.736;9.294;2022-09-25T08:17:02;2.65;;;1.20;;
51190;SDS011;37253;48.736;9.294;2022-09-25T08:19:02;1.77;;;1.10;;
51190;SDS011;37253;48.736;9.294;2022-09-25T08:21:03;3.97;;;1.25;;
51190;SDS011;37253;48.736;9.294;2022-09-25T08:23:04;4.38;;;1.48;;
51190;SDS011;37253;48.736;9.294;2022-09-25T08:25:06;1.77;;;1.00;;
51190;SDS011;37253;48.736;9.294;2022-09-25T08:27:06;2.65;;;1.10;;
51190;SDS011;37253;48.736;9.294;2022-09-25T08:29:07;3.60;;;1.20;;
51190;SDS011;37253;48.736;9.294;2022-09-25T08:31:08;1.63;;;1.10;;
51190;SDS011;37253;48.736;9.294;2022-09-25T08:33:09;2.05;;;1.10;;
51190;SDS011;37253;48.736;9.294;2022-09-25T08:35:11;5.30;;;1.15;;
51190;SDS011;37253;48.736;9.294;2022-09-25T08:37:11;2.45;;;1.10;;
51190;SDS011;37253;48.736;9.294;2022-09-25T08:39:11;3.75;;;1.15;;
51190;SDS011;37253;48.736;9.294;2022-09-25T08:41:16;1.40;;;1.13;;
51190;SDS011;37253;48.736;9.294;2022-09-25T08:43:19;3.75;;;1.20;;
51190;SDS011;37253;48.736;9.294;2022-09-25T08:45:28;2.05;;;1.33;;
51190;SDS011;37253;48.736;9.294;2022-09-25T08:47:51;3.30;;;1.10;;
51190;SDS011;37253;48.736;9.294;2022-09-25T08:50:12;2.05;;;1.00;;
51190;SDS011;37253;48.736;9.294;2022-09-25T08:52:16;1.35;;;1.15;;
51190;SDS011;37253;48.736;9.294;2022-09-25T08:54:19;4.93;;;1.30;;
51190;SDS011;37253;48.736;9.294;2022-09-25T08:56:26;1.73;;;1.00;;
51190;SDS011;37253;48.736;9.294;2022-09-25T08:58:29;3.42;;;1.10;;
51190;SDS011;37253;48.736;9.294;2022-09-25T09:00:32;1.30;;;1.00;;
51190;SDS011;37253;48.736;9.294;2022-09-25T09:02:37;3.17;;;1.25;;
51190;SDS011;37253;48.736;9.294;2022-09-25T09:04:41;2.53;;;1.33;;
51190;SDS011;37253;48.736;9.294;2022-09-25T09:06:45;3.05;;;1.20;;
51190;SDS011;37253;48.736;9.294;2022-09-25T09:08:50;3.53;;;1.08;;
51190;SDS011;37253;48.736;9.294;2022-09-25T09:10:58;1.75;;;1.10;;
51190;SDS011;37253;48.736;9.294;2022-09-25T09:15:15;1.42;;;1.00;;
51190;SDS011;37253;48.736;9.294;2022-09-25T09:17:33;1.48;;;1.20;;
51190;SDS011;37253;48.736;9.294;2022-09-25T09:19:39;2.63;;;1.00;;
51190;SDS011;37253;48.736;9.294;2022-09-25T09:21:50;2.00;;;1.00;;
51190;SDS011;37253;48.736;9.294;2022-09-25T09:26:19;2.25;;;1.00;;
51190;SDS011;37253;48.736;9.294;2022-09-25T09:33:24;2.47;;;1.30;;
51190;SDS011;37253;48.736;9.294;2022-09-25T09:36:28;1.38;;;0.95;;
51190;SDS011;37253;48.736;9.294;2022-09-25T09:38:38;1.35;;;1.05;;
51190;SDS011;37253;48.736;9.294;2022-09-25T09:43:21;2.20;;;1.20;;
51190;SDS011;37253;48.736;9.294;2022-09-25T09:45:44;1.40;;;1.00;;
51190;SDS011;37253;48.736;9.294;2022-09-25T09:50:23;2.00;;;1.00;;
51190;SDS011;37253;48.736;9.294;2022-09-25T09:52:38;2.17;;;1.08;;
51190;SDS011;37253;48.736;9.294;2022-09-25T09:54:54;1.50;;;1.02;;
51190;SDS011;37253;48.736;9.294;2022-09-25T09:56:56;1.63;;;1.00;;
51190;SDS011;37253;48.736;9.294;2022-09-25T09:59:01;2.90;;;1.00;;
51190;SDS011;37253;48.736;9.294;2022-09-25T10:01:08;1.25;;;1.00;;
51190;SDS011;37253;48.736;9.294;2022-09-25T10:03:13;2.03;;;1.13;;
51190;SDS011;37253;48.736;9.294;2022-09-25T10:05:28;4.15;;;1.00;;
51190;SDS011;37253;48.736;9.294;2022-09-25T10:07:30;2.30;;;1.00;;
51190;SDS011;37253;48.736;9.294;2022-09-25T10:09:33;2.05;;;1.23;;
51190;SDS011;37253;48.736;9.294;2022-09-25T10:11:33;1.90;;;1.00;;
51190;SDS011;37253;48.736;9.294;2022-09-25T10:13:37;1.20;;;0.90;;
51190;SDS011;37253;48.736;9.294;2022-09-25T10:15:39;1.52;;;1.10;;
51190;SDS011;37253;48.736;9.294;2022-09-25T10:17:42;1.60;;;1.10;;
51190;SDS011;37253;48.736;9.294;2022-09-25T10:19:46;1.42;;;1.05;;
51190;SDS011;37253;48.736;9.294;2022-09-25T10:21:52;1.70;;;1.13;;
51190;SDS011;37253;48.736;9.294;2022-09-25T10:24:09;2.35;;;0.80;;
51190;SDS011;37253;48.736;9.294;2022-09-25T10:26:50;1.35;;;1.10;;
51190;SDS011;37253;48.736;9.294;2022-09-25T10:28:50;1.23;;;1.00;;
51190;SDS011;37253;48.736;9.294;2022-09-25T10:30:51;2.55;;;0.98;;
51190;SDS011;37253;48.736;9.294;2022-09-25T10:35:00;1.90;;;1.20;;
51190;SDS011;37253;48.736;9.294;2022-09-25T10:37:00;1.55;;;1.00;;
51190;SDS011;37253;48.736;9.294;2022-09-25T10:41:39;1.20;;;1.00;;
51190;SDS011;37253;48.736;9.294;2022-09-25T10:46:10;1.48;;;1.23;;
51190;SDS011;37253;48.736;9.294;2022-09-25T10:51:07;5.50;;;1.20;;
51190;SDS011;37253;48.736;9.294;2022-09-25T10:53:22;7.75;;;1.20;;
51190;SDS011;37253;48.736;9.294;2022-09-25T10:55:28;7.68;;;1.10;;
51190;SDS011;37253;48.736;9.294;2022-09-25T10:57:31;5.10;;;1.10;;
51190;SDS011;37253;48.736;9.294;2022-09-25T10:59:34;3.53;;;1.40;;
51190;SDS011;37253;48.736;9.294;2022-09-25T11:01:37;3.97;;;1.23;;
51190;SDS011;37253;48.736;9.294;2022-09-25T11:03:49;1.80;;;1.33;;
51190;SDS011;37253;48.736;9.294;2022-09-25T11:05:56;48.53;;;17.15;;
51190;SDS011;37253;48.736;9.294;2022-09-25T11:07:59;67.53;;;16.38;;
51190;SDS011;37253;48.736;9.294;2022-09-25T11:10:01;208.93;;;56.92;;
51190;SDS011;37253;48.736;9.294;2022-09-25T11:12:05;122.07;;;35.15;;
51190;SDS011;37253;48.736;9.294;2022-09-25T11:14:15;73.60;;;21.52;;
51190;SDS011;37253;48.736;9.294;2022-09-25T11:16:18;81.38;;;23.10;;
51190;SDS011;37253;48.736;9.294;2022-09-25T11:20:41;45.88;;;14.30;;
51190;SDS011;37253;48.736;9.294;2022-09-25T11:22:43;45.20;;;13.82;;
51190;SDS011;37253;48.736;9.294;2022-09-25T11:24:50;35.92;;;11.75;;
51190;SDS011;37253;48.736;9.294;2022-09-25T11:27:16;35.40;;;11.45;;
51190;SDS011;37253;48.736;9.294;2022-09-25T11:29:22;42.28;;;9.95;;
51190;SDS011;37253;48.736;9.294;2022-09-25T11:35:51;28.65;;;9.95;;
51190;SDS011;37253;48.736;9.294;2022-09-25T11:42:50;26.40;;;8.02;;
51190;SDS011;37253;48.736;9.294;2022-09-25T11:44:58;31.02;;;8.02;;
51190;SDS011;37253;48.736;9.294;2022-09-25T11:47:12;26.40;;;8.45;;
51190;SDS011;37253;48.736;9.294;2022-09-25T12:03:27;19.00;;;6.10;;
51190;SDS011;37253;48.736;9.294;2022-09-25T12:10:22;15.57;;;5.72;;
51190;SDS011;37253;48.736;9.294;2022-09-25T12:21:14;16.70;;;5.40;;
51190;SDS011;37253;48.736;9.294;2022-09-25T12:25:03;15.32;;;5.40;;
51190;SDS011;37253;48.736;9.294;2022-09-25T12:27:35;22.88;;;5.22;;
51190;SDS011;37253;48.736;9.294;2022-09-25T12:34:23;40.30;;;10.05;;
51190;SDS011;37253;48.736;9.294;2022-09-25T12:36:36;266.33;;;60.50;;
51190;SDS011;37253;48.736;9.294;2022-09-25T12:38:48;198.10;;;50.67;;
51190;SDS011;37253;48.736;9.294;2022-09-25T12:40:57;168.25;;;42.20;;
51190;SDS011;37253;48.736;9.294;2022-09-25T12:43:05;156.50;;;41.40;;
51190;SDS011;37253;48.736;9.294;2022-09-25T12:45:11;127.40;;;30.23;;
51190;SDS011;37253;48.736;9.294;2022-09-25T12:47:18;96.43;;;28.10;;
51190;SDS011;37253;48.736;9.294;2022-09-25T12:51:28;85.68;;;23.65;;
51190;SDS011;37253;48.736;9.294;2022-09-25T12:53:48;74.25;;;22.27;;
51190;SDS011;37253;48.736;9.294;2022-09-25T12:55:55;74.20;;;21.40;;
51190;SDS011;37253;48.736;9.294;2022-09-25T13:00:21;64.72;;;19.15;;
51190;SDS011;37253;48.736;9.294;2022-09-25T13:02:34;65.75;;;18.73;;
51190;SDS011;37253;48.736;9.294;2022-09-25T13:04:42;58.10;;;17.67;;
51190;SDS011;37253;48.736;9.294;2022-09-25T13:06:49;55.30;;;16.85;;
51190;SDS011;37253;48.736;9.294;2022-09-25T13:09:06;62.67;;;17.40;;
51190;SDS011;37253;48.736;9.294;2022-09-25T13:11:37;61.60;;;16.48;;
51190;SDS011;37253;48.736;9.294;2022-09-25T13:13:41;56.97;;;17.17;;
51190;SDS011;37253;48.736;9.294;2022-09-25T13:15:48;52.75;;;16.70;;
51190;SDS011;37253;48.736;9.294;2022-09-25T13:17:51;53.58;;;15.32;;
51190;SDS011;37253;48.736;9.294;2022-09-25T13:19:51;52.83;;;14.95;;
51190;SDS011;37253;48.736;9.294;2022-09-25T13:21:57;51.90;;;14.63;;
51190;SDS011;37253;48.736;9.294;2022-09-25T13:23:58;58.25;;;16.35;;
51190;SDS011;37253;48.736;9.294;2022-09-25T13:28:12;42.90;;;15.43;;
51190;SDS011;37253;48.736;9.294;2022-09-25T13:30:22;54.78;;;14.73;;
51190;SDS011;37253;48.736;9.294;2022-09-25T13:32:24;38.33;;;13.27;;
51190;SDS011;37253;48.736;9.294;2022-09-25T13:34:30;52.03;;;13.75;;
51190;SDS011;37253;48.736;9.294;2022-09-25T13:36:38;42.95;;;13.40;;
51190;SDS011;37253;48.736;9.294;2022-09-25T13:38:44;44.28;;;13.93;;
51190;SDS011;37253;48.736;9.294;2022-09-25T13:41:08;44.72;;;13.30;;
51190;SDS011;37253;48.736;9.294;2022-09-25T13:43:20;45.08;;;14.55;;
51190;SDS011;37253;48.736;9.294;2022-09-25T13:45:29;44.17;;;14.05;;
51190;SDS011;37253;48.736;9.294;2022-09-25T13:49:37;44.50;;;13.27;;
51190;SDS011;37253;48.736;9.294;2022-09-25T13:51:49;49.10;;;13.88;;
51190;SDS011;37253;48.736;9.294;2022-09-25T13:53:53;43.25;;;13.35;;
51190;SDS011;37253;48.736;9.294;2022-09-25T13:56:04;38.78;;;13.95;;
51190;SDS011;37253;48.736;9.294;2022-09-25T13:58:21;43.28;;;13.98;;
51190;SDS011;37253;48.736;9.294;2022-09-25T14:02:43;50.40;;;14.93;;
51190;SDS011;37253;48.736;9.294;2022-09-25T14:04:45;125.80;;;41.75;;
51190;SDS011;37253;48.736;9.294;2022-09-25T14:06:48;152.17;;;48.60;;
51190;SDS011;37253;48.736;9.294;2022-09-25T14:08:52;146.30;;;46.67;;
51190;SDS011;37253;48.736;9.294;2022-09-25T14:10:54;133.40;;;43.78;;
51190;SDS011;37253;48.736;9.294;2022-09-25T14:12:56;126.30;;;40.22;;
51190;SDS011;37253;48.736;9.294;2022-09-25T14:17:05;114.80;;;36.42;;
51190;SDS011;37253;48.736;9.294;2022-09-25T14:19:11;109.68;;;34.42;;
51190;SDS011;37253;48.736;9.294;2022-09-25T14:21:16;94.03;;;30.20;;
51190;SDS011;37253;48.736;9.294;2022-09-25T14:23:24;88.65;;;29.10;;
51190;SDS011;37253;48.736;9.294;2022-09-25T14:25:32;95.80;;;30.75;;